Terminal Aerodrome Forecast
Issued by NWS Cleveland, OH

Home | Current Version | Previous Version | Graphics & Text | Print | Product List | Glossary On
Versions: 1 2 3 4 5 6 7 8 9 10 11 12 13 14 15 16 17 18 19
000
FTUS41 KCLE 300300 AAA
TAFCAK
TAF AMD
KCAK 300309Z 3003/3024 32010G20KT 3SM -SN BR OVC009
     FM300500 30012KT P6SM OVC015
     FM301000 31014G21KT P6SM OVC015
     FM301800 32012KT P6SM SCT250=

USA.gov is the U.S. government's official web portal to all federal, state and local government web resources and services.